WetterOnline ( https://www.wetteronline.at )

Wetter aktuell Emden

Aktuelles Wetter: Emden (5m)

6-stündlich | Neueste Meldungen
Ortszeit Temperatur Wetter
Di, 20.08. 2:00 14.8° C wolkenlos
Mo, 19.08. 20:00 19.1° C wolkenlos
Mo, 19.08. 14:00 18.7° C leichter Regen
Mo, 19.08. 8:00 14.0° C fast wolkenlos
Mo, 19.08. 2:00 15.4° C wolkenlos
So, 18.08. 20:00 18.3° C leicht bewölkt
So, 18.08. 14:00 17.2° C bedeckt
So, 18.08. 8:00 15.7° C Sprühregen
Ortszeit Temperatur Wetter
Di, 20.08. 2:30 14.8° C leicht bewölkt
Di, 20.08. 2:20 14.8° C leicht bewölkt
Di, 20.08. 2:10 14.9° C wolkenlos
Di, 20.08. 2:00 14.8° C wolkenlos
Di, 20.08. 1:40 14.7° C fast wolkenlos
Di, 20.08. 1:30 14.9° C leicht bewölkt
Di, 20.08. 1:00 15.0° C fast wolkenlos
Di, 20.08. 0:30 15.1° C wolkenlos
Di, 20.08. 0:00 15.7° C wolkenlos
Mo, 19.08. 23:30 15.7° C wolkenlos
Ortszeit Relative Feuchte Sichtweite
Di, 20.08. 2:00 82% 45 km
Mo, 19.08. 20:00 57% 65 km
Mo, 19.08. 14:00 67% 50 km
Mo, 19.08. 8:00 88% 35 km
Mo, 19.08. 2:00 87% 45 km
So, 18.08. 20:00 73% >70 km
So, 18.08. 14:00 81% 40 km
So, 18.08. 8:00 95% 18 km
Ortszeit Relative Feuchte Sichtweite
Di, 20.08. 2:30 81% 45 km
Di, 20.08. 2:20 81% -
Di, 20.08. 2:10 81% -
Di, 20.08. 2:00 82% 45 km
Di, 20.08. 1:40 83% -
Di, 20.08. 1:30 81% 45 km
Di, 20.08. 1:00 80% 55 km
Di, 20.08. 0:30 80% 50 km
Di, 20.08. 0:00 77% 55 km
Mo, 19.08. 23:30 76% 45 km
Ortszeit Niederschlagsmenge Niederschlagsart
Di, 20.08. 2:00 0.0 l/m2 in 6 Std. -
Mo, 19.08. 20:00 0.1 l/m2 in 12 Std. Regen
Mo, 19.08. 14:00 0.1 l/m2 in 6 Std. Regen
Mo, 19.08. 8:00 0.1 l/m2 in 12 Std. -
Mo, 19.08. 2:00 0.1 l/m2 in 6 Std. Regen
So, 18.08. 20:00 0.3 l/m2 in 12 Std. Regen
So, 18.08. 14:00 0.3 l/m2 in 6 Std. Regen
So, 18.08. 8:00 0.5 l/m2 in 12 Std. Regen
Ortszeit Niederschlagsmenge Niederschlagsart
Di, 20.08. 2:30 0.0 l/m2 in 1 Std. -
Di, 20.08. 2:20 keine Meldung -
Di, 20.08. 2:10 keine Meldung -
Di, 20.08. 2:00 0.0 l/m2 in 1 Std. -
Di, 20.08. 1:40 keine Meldung -
Di, 20.08. 1:30 0.0 l/m2 in 1 Std. -
Di, 20.08. 1:00 0.0 l/m2 in 1 Std. -
Di, 20.08. 0:30 0.0 l/m2 in 1 Std. -
Di, 20.08. 0:00 0.0 l/m2 in 1 Std. -
Mo, 19.08. 23:30 0.0 l/m2 in 1 Std. -
Ortszeit Stärke Spitze Richtung
km/h Bft. km/h Grad Sektor
Di, 20.08. 2:00 9 2 26 190° S
Mo, 19.08. 20:00 15 3 44 240° SW
Mo, 19.08. 14:00 14 3 40 230° SW
Mo, 19.08. 8:00 18 3 36 200° S
Mo, 19.08. 2:00 11 2 25 220° SW
So, 18.08. 20:00 11 2 30 230° SW
So, 18.08. 14:00 14 3 32 200° S
So, 18.08. 8:00 9 2 22 180° S
Ortszeit Stärke Spitze Richtung
km/h Bft. km/h Grad Sektor
Di, 20.08. 2:30 13 3 22 200° S
Di, 20.08. 2:20 13 3 - 200° S
Di, 20.08. 2:10 11 2 - 200° S
Di, 20.08. 2:00 9 2 19 190° S
Di, 20.08. 1:40 9 2 - 190° S
Di, 20.08. 1:30 13 3 19 200° S
Di, 20.08. 1:00 9 2 20 190° S
Di, 20.08. 0:30 13 3 20 200° S
Di, 20.08. 0:00 9 2 19 200° S
Mo, 19.08. 23:30 9 2 17 200° S
Ortszeit Untergrenze Bedeckung Gattung
total tief tief mittel hoch
Di, 20.08. 2:00 - 0/8 0/8 - - -
Mo, 19.08. 20:00 - 0/8 0/8 - - -
Mo, 19.08. 14:00 1020 m 8/8 8/8 - - -
Mo, 19.08. 8:00 300 m 1/8 1/8 - - -
Mo, 19.08. 2:00 - 0/8 0/8 - - -
So, 18.08. 20:00 9000 m 3/8 0/8 - - -
So, 18.08. 14:00 390 m 8/8 8/8 - - -
So, 18.08. 8:00 210 m 8/8 4/8 - - -
Ortszeit Bedeckungsgrad in Achtel und Wolkenuntergrenze
Di, 20.08. 2:30 3(3900m)
Di, 20.08. 2:20 3(3900m)
Di, 20.08. 2:10 keine Wolken
Di, 20.08. 2:00 keine Wolken
Di, 20.08. 1:40 1(2700m)
Di, 20.08. 1:30 3(2700m)
Di, 20.08. 1:00 1(780m)
Di, 20.08. 0:30 keine Wolken
Di, 20.08. 0:00 keine Wolken
Mo, 19.08. 23:30 1(1500m)
Ortszeit Luftdruck NN (hPa) Tendenz (hPa in 3 Std.)
Di, 20.08. 2:00 1017 + 0,6
Mo, 19.08. 20:00 1016 + 1,0
Mo, 19.08. 14:00 1013 + 1,5
Mo, 19.08. 8:00 1011 + 1,6
Mo, 19.08. 2:00 1009 + 0,8
So, 18.08. 20:00 1006 + 1,0
So, 18.08. 14:00 1004 - 0,2
So, 18.08. 8:00 1004 - 0,5
Ortszeit Luftdruck NN (hPa) Tendenz (hPa in 3 Std.)
Di, 20.08. 2:30 1017 + 0,4
Di, 20.08. 2:20 1017 keine Meldung
Di, 20.08. 2:10 1017 keine Meldung
Di, 20.08. 2:00 1017 + 0,6
Di, 20.08. 1:40 1017 keine Meldung
Di, 20.08. 1:30 1017 + 0,9
Di, 20.08. 1:00 1017 + 0,9
Di, 20.08. 0:30 1017 + 0,9
Di, 20.08. 0:00 1017 + 1,0
Mo, 19.08. 23:30 1017 + 1,0
Ortszeit Schneehöhe (cm)
Di, 20.08. 2:00 -
Mo, 19.08. 20:00 -
Mo, 19.08. 14:00 -
Mo, 19.08. 8:00 -
Mo, 19.08. 2:00 -
So, 18.08. 20:00 -
So, 18.08. 14:00 -
So, 18.08. 8:00 -
Ortszeit Schneehöhe (cm)
Di, 20.08. 2:30 -
Di, 20.08. 2:20 -
Di, 20.08. 2:10 -
Di, 20.08. 2:00 -
Di, 20.08. 1:40 -
Di, 20.08. 1:30 -
Di, 20.08. 1:00 -
Di, 20.08. 0:30 -
Di, 20.08. 0:00 -
Mo, 19.08. 23:30 -
Link zu dieser Seite / Seite empfehlen

Das Wetter in ...